sensor_id;sensor_type;location;lat;lon;timestamp;temperature;humidity
61841;DHT22;47773;53.174;6.614;2023-11-19T00:02:19;11.00;99.90
61841;DHT22;47773;53.174;6.614;2023-11-19T00:04:45;11.00;99.90
61841;DHT22;47773;53.174;6.614;2023-11-19T00:07:10;11.00;99.90
61841;DHT22;47773;53.174;6.614;2023-11-19T00:09:38;11.10;99.90
61841;DHT22;47773;53.174;6.614;2023-11-19T00:12:05;11.10;99.90
61841;DHT22;47773;53.174;6.614;2023-11-19T00:14:31;11.10;99.90
61841;DHT22;47773;53.174;6.614;2023-11-19T00:16:57;11.20;99.90
61841;DHT22;47773;53.174;6.614;2023-11-19T00:19:22;11.20;99.90
61841;DHT22;47773;53.174;6.614;2023-11-19T00:21:48;11.30;99.90
61841;DHT22;47773;53.174;6.614;2023-11-19T00:24:14;11.30;99.90
61841;DHT22;47773;53.174;6.614;2023-11-19T00:26:42;11.40;99.90
61841;DHT22;47773;53.174;6.614;2023-11-19T00:29:08;11.40;99.90
61841;DHT22;47773;53.174;6.614;2023-11-19T00:31:34;11.50;99.90
61841;DHT22;47773;53.174;6.614;2023-11-19T00:34:00;11.60;99.90
61841;DHT22;47773;53.174;6.614;2023-11-19T00:36:27;11.60;99.90
61841;DHT22;47773;53.174;6.614;2023-11-19T00:38:54;11.70;99.90
61841;DHT22;47773;53.174;6.614;2023-11-19T00:41:20;11.80;99.90
61841;DHT22;47773;53.174;6.614;2023-11-19T00:43:45;11.80;99.90
61841;DHT22;47773;53.174;6.614;2023-11-19T00:46:11;11.80;99.90
61841;DHT22;47773;53.174;6.614;2023-11-19T00:48:37;11.90;99.90
61841;DHT22;47773;53.174;6.614;2023-11-19T00:51:03;11.90;99.90
61841;DHT22;47773;53.174;6.614;2023-11-19T00:53:32;11.90;99.90
61841;DHT22;47773;53.174;6.614;2023-11-19T00:55:59;12.00;99.90
61841;DHT22;47773;53.174;6.614;2023-11-19T00:58:25;12.00;99.90
61841;DHT22;47773;53.174;6.614;2023-11-19T01:00:51;12.00;99.90
61841;DHT22;47773;53.174;6.614;2023-11-19T01:03:16;12.00;99.90
61841;DHT22;47773;53.174;6.614;2023-11-19T01:05:42;12.00;99.90
61841;DHT22;47773;53.174;6.614;2023-11-19T01:08:09;12.10;99.90
61841;DHT22;47773;53.174;6.614;2023-11-19T01:10:37;12.10;99.90
61841;DHT22;47773;53.174;6.614;2023-11-19T01:13:02;12.10;99.90
61841;DHT22;47773;53.174;6.614;2023-11-19T01:15:32;12.10;99.90
61841;DHT22;47773;53.174;6.614;2023-11-19T01:17:58;12.10;99.90
61841;DHT22;47773;53.174;6.614;2023-11-19T01:20:24;12.10;99.90
61841;DHT22;47773;53.174;6.614;2023-11-19T01:22:50;12.20;99.90
61841;DHT22;47773;53.174;6.614;2023-11-19T01:25:16;12.20;99.90
61841;DHT22;47773;53.174;6.614;2023-11-19T01:27:41;12.20;99.90
61841;DHT22;47773;53.174;6.614;2023-11-19T01:30:08;12.20;99.90
61841;DHT22;47773;53.174;6.614;2023-11-19T01:32:35;12.20;99.90
61841;DHT22;47773;53.174;6.614;2023-11-19T01:35:03;12.20;99.90
61841;DHT22;47773;53.174;6.614;2023-11-19T01:37:29;12.20;99.90
61841;DHT22;47773;53.174;6.614;2023-11-19T01:39:56;12.20;99.90
61841;DHT22;47773;53.174;6.614;2023-11-19T01:42:23;12.30;99.90
61841;DHT22;47773;53.174;6.614;2023-11-19T01:45:00;12.30;99.90
61841;DHT22;47773;53.174;6.614;2023-11-19T01:47:30;12.30;99.90
61841;DHT22;47773;53.174;6.614;2023-11-19T01:49:57;12.30;99.90
61841;DHT22;47773;53.174;6.614;2023-11-19T01:52:23;12.30;99.90
61841;DHT22;47773;53.174;6.614;2023-11-19T01:54:52;12.20;99.90
61841;DHT22;47773;53.174;6.614;2023-11-19T01:57:18;12.20;99.90
61841;DHT22;47773;53.174;6.614;2023-11-19T01:59:45;12.30;99.90
61841;DHT22;47773;53.174;6.614;2023-11-19T02:02:11;12.30;99.90
61841;DHT22;47773;53.174;6.614;2023-11-19T02:04:38;12.30;99.90
61841;DHT22;47773;53.174;6.614;2023-11-19T02:07:04;12.20;99.90
61841;DHT22;47773;53.174;6.614;2023-11-19T02:09:30;12.20;99.90
61841;DHT22;47773;53.174;6.614;2023-11-19T02:11:55;12.30;99.90
61841;DHT22;47773;53.174;6.614;2023-11-19T02:14:25;12.30;99.90
61841;DHT22;47773;53.174;6.614;2023-11-19T02:16:52;12.30;99.90
61841;DHT22;47773;53.174;6.614;2023-11-19T02:19:21;12.30;99.90
61841;DHT22;47773;53.174;6.614;2023-11-19T02:21:46;12.20;99.90
61841;DHT22;47773;53.174;6.614;2023-11-19T02:24:14;12.20;99.90
61841;DHT22;47773;53.174;6.614;2023-11-19T02:29:15;12.20;99.90
61841;DHT22;47773;53.174;6.614;2023-11-19T02:31:41;12.20;99.90
61841;DHT22;47773;53.174;6.614;2023-11-19T02:34:07;12.20;99.90
61841;DHT22;47773;53.174;6.614;2023-11-19T02:36:32;12.20;99.90
61841;DHT22;47773;53.174;6.614;2023-11-19T02:38:58;12.20;99.90
61841;DHT22;47773;53.174;6.614;2023-11-19T02:41:25;12.20;99.90
61841;DHT22;47773;53.174;6.614;2023-11-19T02:43:50;12.20;99.90
61841;DHT22;47773;53.174;6.614;2023-11-19T02:46:16;12.20;99.90
61841;DHT22;47773;53.174;6.614;2023-11-19T02:48:43;12.20;99.90
61841;DHT22;47773;53.174;6.614;2023-11-19T02:51:09;12.20;99.90
61841;DHT22;47773;53.174;6.614;2023-11-19T02:53:36;12.20;99.90
61841;DHT22;47773;53.174;6.614;2023-11-19T02:56:05;12.20;99.90
61841;DHT22;47773;53.174;6.614;2023-11-19T02:58:37;12.20;99.90
61841;DHT22;47773;53.174;6.614;2023-11-19T03:01:04;12.20;99.90
61841;DHT22;47773;53.174;6.614;2023-11-19T03:03:38;12.20;99.90
61841;DHT22;47773;53.174;6.614;2023-11-19T03:06:06;12.20;99.90
61841;DHT22;47773;53.174;6.614;2023-11-19T03:08:34;12.20;99.90
61841;DHT22;47773;53.174;6.614;2023-11-19T03:11:00;12.20;99.90
61841;DHT22;47773;53.174;6.614;2023-11-19T03:13:26;12.20;99.90
61841;DHT22;47773;53.174;6.614;2023-11-19T03:15:52;12.20;99.90
61841;DHT22;47773;53.174;6.614;2023-11-19T03:18:19;12.20;99.90
61841;DHT22;47773;53.174;6.614;2023-11-19T03:20:46;12.10;99.90
61841;DHT22;47773;53.174;6.614;2023-11-19T03:23:12;12.10;99.90
61841;DHT22;47773;53.174;6.614;2023-11-19T03:25:38;12.20;99.90
61841;DHT22;47773;53.174;6.614;2023-11-19T03:28:04;12.20;99.90
61841;DHT22;47773;53.174;6.614;2023-11-19T03:30:30;12.10;99.90
61841;DHT22;47773;53.174;6.614;2023-11-19T03:32:56;12.10;99.90
61841;DHT22;47773;53.174;6.614;2023-11-19T03:35:23;12.10;99.90
61841;DHT22;47773;53.174;6.614;2023-11-19T03:37:50;12.10;99.90
61841;DHT22;47773;53.174;6.614;2023-11-19T03:40:18;12.10;99.90
61841;DHT22;47773;53.174;6.614;2023-11-19T03:42:47;12.10;99.90
61841;DHT22;47773;53.174;6.614;2023-11-19T03:45:15;12.10;99.90
61841;DHT22;47773;53.174;6.614;2023-11-19T03:47:41;12.10;99.90
61841;DHT22;47773;53.174;6.614;2023-11-19T03:50:07;12.10;99.90
61841;DHT22;47773;53.174;6.614;2023-11-19T03:52:34;12.10;99.90
61841;DHT22;47773;53.174;6.614;2023-11-19T03:55:00;12.10;99.90
61841;DHT22;47773;53.174;6.614;2023-11-19T03:57:27;12.10;99.90
61841;DHT22;47773;53.174;6.614;2023-11-19T03:59:53;12.10;99.90
61841;DHT22;47773;53.174;6.614;2023-11-19T04:02:19;12.10;99.90
61841;DHT22;47773;53.174;6.614;2023-11-19T04:04:44;12.10;99.90
61841;DHT22;47773;53.174;6.614;2023-11-19T04:07:10;12.00;99.90
61841;DHT22;47773;53.174;6.614;2023-11-19T04:09:36;12.10;99.90
61841;DHT22;47773;53.174;6.614;2023-11-19T04:12:03;12.10;99.90
61841;DHT22;47773;53.174;6.614;2023-11-19T04:14:29;12.10;99.90
61841;DHT22;47773;53.174;6.614;2023-11-19T04:16:55;12.10;99.90
61841;DHT22;47773;53.174;6.614;2023-11-19T04:19:20;12.10;99.90
61841;DHT22;47773;53.174;6.614;2023-11-19T04:21:47;12.00;99.90
61841;DHT22;47773;53.174;6.614;2023-11-19T04:24:13;12.10;99.90
61841;DHT22;47773;53.174;6.614;2023-11-19T04:26:43;12.00;99.90
61841;DHT22;47773;53.174;6.614;2023-11-19T04:29:12;12.00;99.90
61841;DHT22;47773;53.174;6.614;2023-11-19T04:31:38;12.00;99.90
61841;DHT22;47773;53.174;6.614;2023-11-19T04:34:05;12.00;99.90
61841;DHT22;47773;53.174;6.614;2023-11-19T04:36:32;12.00;99.90
61841;DHT22;47773;53.174;6.614;2023-11-19T04:38:59;11.90;99.90
61841;DHT22;47773;53.174;6.614;2023-11-19T04:41:25;11.90;99.90
61841;DHT22;47773;53.174;6.614;2023-11-19T04:43:53;12.00;99.90
61841;DHT22;47773;53.174;6.614;2023-11-19T04:46:19;12.00;99.90
61841;DHT22;47773;53.174;6.614;2023-11-19T04:48:45;12.00;99.90
61841;DHT22;47773;53.174;6.614;2023-11-19T04:51:11;12.00;99.90
61841;DHT22;47773;53.174;6.614;2023-11-19T04:53:36;12.10;99.90
61841;DHT22;47773;53.174;6.614;2023-11-19T04:56:08;12.10;99.90
61841;DHT22;47773;53.174;6.614;2023-11-19T04:58:34;12.10;99.90
61841;DHT22;47773;53.174;6.614;2023-11-19T05:01:01;12.10;99.90
61841;DHT22;47773;53.174;6.614;2023-11-19T05:03:27;12.10;99.90
61841;DHT22;47773;53.174;6.614;2023-11-19T05:05:52;12.10;99.90
61841;DHT22;47773;53.174;6.614;2023-11-19T05:08:19;12.10;99.90
61841;DHT22;47773;53.174;6.614;2023-11-19T05:10:44;12.10;99.90
61841;DHT22;47773;53.174;6.614;2023-11-19T05:13:10;12.10;99.90
61841;DHT22;47773;53.174;6.614;2023-11-19T05:15:36;12.10;99.90
61841;DHT22;47773;53.174;6.614;2023-11-19T05:18:01;12.10;99.90
61841;DHT22;47773;53.174;6.614;2023-11-19T05:20:27;12.10;99.90
61841;DHT22;47773;53.174;6.614;2023-11-19T05:22:53;12.10;99.90
61841;DHT22;47773;53.174;6.614;2023-11-19T05:25:18;12.10;99.90
61841;DHT22;47773;53.174;6.614;2023-11-19T05:27:45;12.10;99.90
61841;DHT22;47773;53.174;6.614;2023-11-19T05:30:11;12.10;99.90
61841;DHT22;47773;53.174;6.614;2023-11-19T05:32:37;12.00;99.90
61841;DHT22;47773;53.174;6.614;2023-11-19T05:35:03;12.00;99.90
61841;DHT22;47773;53.174;6.614;2023-11-19T05:37:28;12.00;99.90
61841;DHT22;47773;53.174;6.614;2023-11-19T05:39:54;12.00;99.90
61841;DHT22;47773;53.174;6.614;2023-11-19T05:42:20;12.00;99.90
61841;DHT22;47773;53.174;6.614;2023-11-19T05:44:45;12.00;99.90
61841;DHT22;47773;53.174;6.614;2023-11-19T05:47:11;12.00;99.90
61841;DHT22;47773;53.174;6.614;2023-11-19T05:49:37;12.00;99.90
61841;DHT22;47773;53.174;6.614;2023-11-19T05:52:03;12.00;99.90
61841;DHT22;47773;53.174;6.614;2023-11-19T05:54:29;12.00;99.90
61841;DHT22;47773;53.174;6.614;2023-11-19T05:56:55;12.00;99.90
61841;DHT22;47773;53.174;6.614;2023-11-19T05:59:20;12.00;99.90
61841;DHT22;47773;53.174;6.614;2023-11-19T06:01:48;12.00;99.90
61841;DHT22;47773;53.174;6.614;2023-11-19T06:04:13;12.00;99.90
61841;DHT22;47773;53.174;6.614;2023-11-19T06:06:39;12.00;99.90
61841;DHT22;47773;53.174;6.614;2023-11-19T06:09:05;12.00;99.90
61841;DHT22;47773;53.174;6.614;2023-11-19T06:11:36;12.00;99.90
61841;DHT22;47773;53.174;6.614;2023-11-19T06:14:02;12.00;99.90
61841;DHT22;47773;53.174;6.614;2023-11-19T06:16:31;12.00;99.90
61841;DHT22;47773;53.174;6.614;2023-11-19T06:18:57;12.00;99.90
61841;DHT22;47773;53.174;6.614;2023-11-19T06:21:22;12.00;99.90
61841;DHT22;47773;53.174;6.614;2023-11-19T06:23:48;12.00;99.90
61841;DHT22;47773;53.174;6.614;2023-11-19T06:26:14;12.00;99.90
61841;DHT22;47773;53.174;6.614;2023-11-19T06:28:40;12.00;99.90
61841;DHT22;47773;53.174;6.614;2023-11-19T06:31:05;12.00;99.90
61841;DHT22;47773;53.174;6.614;2023-11-19T06:33:31;11.90;99.90
61841;DHT22;47773;53.174;6.614;2023-11-19T06:35:57;12.00;99.90
61841;DHT22;47773;53.174;6.614;2023-11-19T06:38:22;12.00;99.90
61841;DHT22;47773;53.174;6.614;2023-11-19T06:40:48;12.00;99.90
61841;DHT22;47773;53.174;6.614;2023-11-19T06:43:14;12.00;99.90
61841;DHT22;47773;53.174;6.614;2023-11-19T06:45:40;12.00;99.90
61841;DHT22;47773;53.174;6.614;2023-11-19T06:48:06;12.00;99.90
61841;DHT22;47773;53.174;6.614;2023-11-19T06:50:32;11.90;99.90
61841;DHT22;47773;53.174;6.614;2023-11-19T06:52:59;11.90;99.90
61841;DHT22;47773;53.174;6.614;2023-11-19T06:55:25;11.90;99.90
61841;DHT22;47773;53.174;6.614;2023-11-19T06:57:51;11.90;99.90
61841;DHT22;47773;53.174;6.614;2023-11-19T07:00:17;11.90;99.90
61841;DHT22;47773;53.174;6.614;2023-11-19T07:02:44;11.90;99.90
61841;DHT22;47773;53.174;6.614;2023-11-19T07:05:10;11.90;99.90
61841;DHT22;47773;53.174;6.614;2023-11-19T07:07:37;11.90;99.90
61841;DHT22;47773;53.174;6.614;2023-11-19T07:10:03;11.90;99.90
61841;DHT22;47773;53.174;6.614;2023-11-19T07:12:30;11.90;99.90
61841;DHT22;47773;53.174;6.614;2023-11-19T07:14:55;11.90;99.90
61841;DHT22;47773;53.174;6.614;2023-11-19T07:17:21;11.80;99.90
61841;DHT22;47773;53.174;6.614;2023-11-19T07:19:50;11.90;99.90
61841;DHT22;47773;53.174;6.614;2023-11-19T07:22:15;11.80;99.90
61841;DHT22;47773;53.174;6.614;2023-11-19T07:24:41;11.80;99.90
61841;DHT22;47773;53.174;6.614;2023-11-19T07:27:07;11.80;99.90
61841;DHT22;47773;53.174;6.614;2023-11-19T07:29:34;11.80;99.90
61841;DHT22;47773;53.174;6.614;2023-11-19T07:32:00;11.70;99.90
61841;DHT22;47773;53.174;6.614;2023-11-19T07:34:27;11.70;99.90
61841;DHT22;47773;53.174;6.614;2023-11-19T07:36:54;11.80;99.90
61841;DHT22;47773;53.174;6.614;2023-11-19T07:39:22;11.70;99.90
61841;DHT22;47773;53.174;6.614;2023-11-19T07:41:49;11.70;99.90
61841;DHT22;47773;53.174;6.614;2023-11-19T07:44:15;11.70;99.90
61841;DHT22;47773;53.174;6.614;2023-11-19T07:46:40;11.70;99.90
61841;DHT22;47773;53.174;6.614;2023-11-19T07:49:08;11.70;99.90
61841;DHT22;47773;53.174;6.614;2023-11-19T07:51:35;11.70;99.90
61841;DHT22;47773;53.174;6.614;2023-11-19T07:54:01;11.70;99.90
61841;DHT22;47773;53.174;6.614;2023-11-19T07:56:26;11.70;99.90
61841;DHT22;47773;53.174;6.614;2023-11-19T07:58:52;11.70;99.90
61841;DHT22;47773;53.174;6.614;2023-11-19T08:01:18;11.80;99.90
61841;DHT22;47773;53.174;6.614;2023-11-19T08:03:44;11.80;99.90
61841;DHT22;47773;53.174;6.614;2023-11-19T08:06:10;11.80;99.90
61841;DHT22;47773;53.174;6.614;2023-11-19T08:08:36;11.80;99.90
61841;DHT22;47773;53.174;6.614;2023-11-19T08:11:03;11.90;99.90
61841;DHT22;47773;53.174;6.614;2023-11-19T08:13:30;11.80;99.90
61841;DHT22;47773;53.174;6.614;2023-11-19T08:15:57;11.90;99.90
61841;DHT22;47773;53.174;6.614;2023-11-19T08:18:24;11.90;99.90
61841;DHT22;47773;53.174;6.614;2023-11-19T08:20:49;11.90;99.90
61841;DHT22;47773;53.174;6.614;2023-11-19T08:23:19;11.90;99.90
61841;DHT22;47773;53.174;6.614;2023-11-19T08:25:45;12.00;99.90
61841;DHT22;47773;53.174;6.614;2023-11-19T08:28:11;12.00;99.90
61841;DHT22;47773;53.174;6.614;2023-11-19T08:30:36;12.00;99.90
61841;DHT22;47773;53.174;6.614;2023-11-19T08:33:02;12.10;99.90
61841;DHT22;47773;53.174;6.614;2023-11-19T08:35:31;12.10;99.90
61841;DHT22;47773;53.174;6.614;2023-11-19T08:37:57;12.00;99.90
61841;DHT22;47773;53.174;6.614;2023-11-19T08:40:24;12.10;99.90
61841;DHT22;47773;53.174;6.614;2023-11-19T08:42:51;12.10;99.90
61841;DHT22;47773;53.174;6.614;2023-11-19T08:45:17;12.10;99.90
61841;DHT22;47773;53.174;6.614;2023-11-19T08:47:43;12.00;99.90
61841;DHT22;47773;53.174;6.614;2023-11-19T08:50:11;12.10;99.90
61841;DHT22;47773;53.174;6.614;2023-11-19T08:52:37;12.00;99.90
61841;DHT22;47773;53.174;6.614;2023-11-19T08:55:03;12.00;99.90
61841;DHT22;47773;53.174;6.614;2023-11-19T08:57:31;12.00;99.90
61841;DHT22;47773;53.174;6.614;2023-11-19T08:59:56;12.00;99.90
61841;DHT22;47773;53.174;6.614;2023-11-19T09:02:22;12.00;99.90
61841;DHT22;47773;53.174;6.614;2023-11-19T09:04:48;11.90;99.90
61841;DHT22;47773;53.174;6.614;2023-11-19T09:07:13;11.90;99.90
61841;DHT22;47773;53.174;6.614;2023-11-19T09:09:39;12.00;99.90
61841;DHT22;47773;53.174;6.614;2023-11-19T09:12:05;12.00;99.90
61841;DHT22;47773;53.174;6.614;2023-11-19T09:14:31;12.00;99.90
61841;DHT22;47773;53.174;6.614;2023-11-19T09:16:57;12.10;99.90
61841;DHT22;47773;53.174;6.614;2023-11-19T09:19:24;12.20;99.90
61841;DHT22;47773;53.174;6.614;2023-11-19T09:21:49;12.30;99.90
61841;DHT22;47773;53.174;6.614;2023-11-19T09:24:15;12.40;99.90
61841;DHT22;47773;53.174;6.614;2023-11-19T09:26:41;12.40;99.90
61841;DHT22;47773;53.174;6.614;2023-11-19T09:29:10;12.50;99.90
61841;DHT22;47773;53.174;6.614;2023-11-19T09:31:38;12.40;99.90
61841;DHT22;47773;53.174;6.614;2023-11-19T09:34:03;12.40;99.90
61841;DHT22;47773;53.174;6.614;2023-11-19T09:36:29;12.30;99.90
61841;DHT22;47773;53.174;6.614;2023-11-19T09:38:55;12.30;99.90
61841;DHT22;47773;53.174;6.614;2023-11-19T09:41:21;12.20;99.90
61841;DHT22;47773;53.174;6.614;2023-11-19T09:43:47;12.20;99.90
61841;DHT22;47773;53.174;6.614;2023-11-19T09:46:14;12.20;99.90
61841;DHT22;47773;53.174;6.614;2023-11-19T09:48:41;12.30;99.90
61841;DHT22;47773;53.174;6.614;2023-11-19T09:51:09;12.40;99.90
61841;DHT22;47773;53.174;6.614;2023-11-19T09:53:35;12.40;99.90
61841;DHT22;47773;53.174;6.614;2023-11-19T09:56:03;12.40;99.90
61841;DHT22;47773;53.174;6.614;2023-11-19T09:58:29;12.50;99.90
61841;DHT22;47773;53.174;6.614;2023-11-19T10:00:57;12.50;99.90
61841;DHT22;47773;53.174;6.614;2023-11-19T10:03:33;12.60;99.90
61841;DHT22;47773;53.174;6.614;2023-11-19T10:06:00;12.60;99.90
61841;DHT22;47773;53.174;6.614;2023-11-19T10:08:26;12.60;99.90
61841;DHT22;47773;53.174;6.614;2023-11-19T10:10:52;12.60;99.90
61841;DHT22;47773;53.174;6.614;2023-11-19T10:13:18;12.60;99.90
61841;DHT22;47773;53.174;6.614;2023-11-19T10:15:44;12.60;99.90
61841;DHT22;47773;53.174;6.614;2023-11-19T10:18:09;12.60;99.90
61841;DHT22;47773;53.174;6.614;2023-11-19T10:20:36;12.60;99.90
61841;DHT22;47773;53.174;6.614;2023-11-19T10:23:02;12.60;99.90
61841;DHT22;47773;53.174;6.614;2023-11-19T10:25:28;12.60;99.90
61841;DHT22;47773;53.174;6.614;2023-11-19T10:27:55;12.60;99.90
61841;DHT22;47773;53.174;6.614;2023-11-19T10:33:10;12.50;99.90
61841;DHT22;47773;53.174;6.614;2023-11-19T10:35:51;12.60;99.90
61841;DHT22;47773;53.174;6.614;2023-11-19T10:38:20;12.50;99.90
61841;DHT22;47773;53.174;6.614;2023-11-19T10:40:48;12.50;99.90
61841;DHT22;47773;53.174;6.614;2023-11-19T10:43:14;12.40;99.90
61841;DHT22;47773;53.174;6.614;2023-11-19T10:45:40;12.40;99.90
61841;DHT22;47773;53.174;6.614;2023-11-19T10:48:07;12.40;99.90
61841;DHT22;47773;53.174;6.614;2023-11-19T10:50:36;12.40;99.90
61841;DHT22;47773;53.174;6.614;2023-11-19T10:53:03;12.40;99.90
61841;DHT22;47773;53.174;6.614;2023-11-19T10:55:31;12.40;99.90
61841;DHT22;47773;53.174;6.614;2023-11-19T10:58:01;12.30;99.90
61841;DHT22;47773;53.174;6.614;2023-11-19T11:03:08;12.30;99.90
61841;DHT22;47773;53.174;6.614;2023-11-19T11:05:36;12.40;99.90
61841;DHT22;47773;53.174;6.614;2023-11-19T11:08:05;12.40;99.90
61841;DHT22;47773;53.174;6.614;2023-11-19T11:10:32;12.40;99.90
61841;DHT22;47773;53.174;6.614;2023-11-19T11:13:03;12.40;99.90
61841;DHT22;47773;53.174;6.614;2023-11-19T11:15:30;12.50;99.90
61841;DHT22;47773;53.174;6.614;2023-11-19T11:18:00;12.50;99.90
61841;DHT22;47773;53.174;6.614;2023-11-19T11:20:33;12.60;99.90
61841;DHT22;47773;53.174;6.614;2023-11-19T11:25:53;12.60;99.90
61841;DHT22;47773;53.174;6.614;2023-11-19T11:32:13;12.70;99.90
61841;DHT22;47773;53.174;6.614;2023-11-19T11:34:52;12.60;99.90
61841;DHT22;47773;53.174;6.614;2023-11-19T11:37:30;12.70;99.90
61841;DHT22;47773;53.174;6.614;2023-11-19T11:39:57;12.70;99.90
61841;DHT22;47773;53.174;6.614;2023-11-19T11:45:02;12.80;99.90
61841;DHT22;47773;53.174;6.614;2023-11-19T11:50:14;12.80;99.90
61841;DHT22;47773;53.174;6.614;2023-11-19T11:55:52;12.80;99.90
61841;DHT22;47773;53.174;6.614;2023-11-19T11:58:25;12.80;99.90
61841;DHT22;47773;53.174;6.614;2023-11-19T12:00:51;12.80;99.90
61841;DHT22;47773;53.174;6.614;2023-11-19T12:03:20;12.80;99.90
61841;DHT22;47773;53.174;6.614;2023-11-19T12:05:48;12.80;99.90
61841;DHT22;47773;53.174;6.614;2023-11-19T12:08:15;12.80;99.90
61841;DHT22;47773;53.174;6.614;2023-11-19T12:10:46;12.80;99.90
61841;DHT22;47773;53.174;6.614;2023-11-19T12:13:16;12.70;99.90
61841;DHT22;47773;53.174;6.614;2023-11-19T12:18:29;12.80;99.90
61841;DHT22;47773;53.174;6.614;2023-11-19T12:20:56;12.80;99.90
61841;DHT22;47773;53.174;6.614;2023-11-19T12:23:26;12.90;99.90
61841;DHT22;47773;53.174;6.614;2023-11-19T12:25:52;12.90;99.90
61841;DHT22;47773;53.174;6.614;2023-11-19T12:28:18;12.90;99.90
61841;DHT22;47773;53.174;6.614;2023-11-19T12:30:44;13.00;99.90
61841;DHT22;47773;53.174;6.614;2023-11-19T12:33:11;13.00;99.90
61841;DHT22;47773;53.174;6.614;2023-11-19T12:38:05;13.00;99.90
61841;DHT22;47773;53.174;6.614;2023-11-19T12:40:32;13.10;99.90
61841;DHT22;47773;53.174;6.614;2023-11-19T12:42:57;13.10;99.90
61841;DHT22;47773;53.174;6.614;2023-11-19T12:45:24;13.10;99.90
61841;DHT22;47773;53.174;6.614;2023-11-19T12:47:50;13.10;99.90
61841;DHT22;47773;53.174;6.614;2023-11-19T12:50:29;13.10;99.90
61841;DHT22;47773;53.174;6.614;2023-11-19T12:52:56;13.10;99.90
61841;DHT22;47773;53.174;6.614;2023-11-19T12:55:29;13.10;99.90
61841;DHT22;47773;53.174;6.614;2023-11-19T12:57:56;13.10;99.90
61841;DHT22;47773;53.174;6.614;2023-11-19T13:00:23;13.10;99.90
61841;DHT22;47773;53.174;6.614;2023-11-19T13:02:51;13.10;99.90
61841;DHT22;47773;53.174;6.614;2023-11-19T13:05:29;13.10;99.90
61841;DHT22;47773;53.174;6.614;2023-11-19T13:10:28;13.10;99.90
61841;DHT22;47773;53.174;6.614;2023-11-19T13:13:07;13.00;99.90
61841;DHT22;47773;53.174;6.614;2023-11-19T13:15:34;13.00;99.90
61841;DHT22;47773;53.174;6.614;2023-11-19T13:18:01;13.00;99.90
61841;DHT22;47773;53.174;6.614;2023-11-19T13:20:27;13.00;99.90
61841;DHT22;47773;53.174;6.614;2023-11-19T13:22:58;13.00;99.90
61841;DHT22;47773;53.174;6.614;2023-11-19T13:25:24;13.10;99.90
61841;DHT22;47773;53.174;6.614;2023-11-19T13:27:49;13.00;99.90
61841;DHT22;47773;53.174;6.614;2023-11-19T13:30:16;13.00;99.90
61841;DHT22;47773;53.174;6.614;2023-11-19T13:32:41;13.00;99.90
61841;DHT22;47773;53.174;6.614;2023-11-19T13:35:09;13.00;99.90
61841;DHT22;47773;53.174;6.614;2023-11-19T13:37:35;12.90;99.90
61841;DHT22;47773;53.174;6.614;2023-11-19T13:40:00;12.90;99.90
61841;DHT22;47773;53.174;6.614;2023-11-19T13:42:26;12.90;99.90
61841;DHT22;47773;53.174;6.614;2023-11-19T13:44:52;12.80;99.90
61841;DHT22;47773;53.174;6.614;2023-11-19T13:47:18;12.80;99.90
61841;DHT22;47773;53.174;6.614;2023-11-19T13:49:47;12.80;99.90
61841;DHT22;47773;53.174;6.614;2023-11-19T13:52:12;12.80;99.90
61841;DHT22;47773;53.174;6.614;2023-11-19T13:54:38;12.80;99.90
61841;DHT22;47773;53.174;6.614;2023-11-19T13:57:04;12.80;99.90
61841;DHT22;47773;53.174;6.614;2023-11-19T13:59:31;12.80;99.90
61841;DHT22;47773;53.174;6.614;2023-11-19T14:01:58;12.80;99.90
61841;DHT22;47773;53.174;6.614;2023-11-19T14:04:23;12.80;99.90
61841;DHT22;47773;53.174;6.614;2023-11-19T14:06:49;12.80;99.90
61841;DHT22;47773;53.174;6.614;2023-11-19T14:09:15;12.80;99.90
61841;DHT22;47773;53.174;6.614;2023-11-19T14:11:40;12.80;99.90
61841;DHT22;47773;53.174;6.614;2023-11-19T14:14:07;12.70;99.90
61841;DHT22;47773;53.174;6.614;2023-11-19T14:16:33;12.70;99.90
61841;DHT22;47773;53.174;6.614;2023-11-19T14:19:00;12.60;99.90
61841;DHT22;47773;53.174;6.614;2023-11-19T14:21:25;12.60;99.90
61841;DHT22;47773;53.174;6.614;2023-11-19T14:23:52;12.60;99.90
61841;DHT22;47773;53.174;6.614;2023-11-19T14:26:18;12.60;99.90
61841;DHT22;47773;53.174;6.614;2023-11-19T14:28:44;12.60;99.90
61841;DHT22;47773;53.174;6.614;2023-11-19T14:31:10;12.60;99.90
61841;DHT22;47773;53.174;6.614;2023-11-19T14:33:36;12.60;99.90
61841;DHT22;47773;53.174;6.614;2023-11-19T14:36:04;12.60;99.90
61841;DHT22;47773;53.174;6.614;2023-11-19T14:38:29;12.60;99.90
61841;DHT22;47773;53.174;6.614;2023-11-19T14:40:55;12.60;99.90
61841;DHT22;47773;53.174;6.614;2023-11-19T14:43:21;12.60;99.90
61841;DHT22;47773;53.174;6.614;2023-11-19T14:45:47;12.60;99.90
61841;DHT22;47773;53.174;6.614;2023-11-19T14:48:12;12.60;99.90
61841;DHT22;47773;53.174;6.614;2023-11-19T14:50:38;12.60;99.90
61841;DHT22;47773;53.174;6.614;2023-11-19T14:53:03;12.60;99.90
61841;DHT22;47773;53.174;6.614;2023-11-19T14:55:29;12.50;99.90
61841;DHT22;47773;53.174;6.614;2023-11-19T14:57:55;12.40;99.90
61841;DHT22;47773;53.174;6.614;2023-11-19T15:00:22;12.40;99.90
61841;DHT22;47773;53.174;6.614;2023-11-19T15:02:47;12.30;99.90
61841;DHT22;47773;53.174;6.614;2023-11-19T15:05:13;12.30;99.90
61841;DHT22;47773;53.174;6.614;2023-11-19T15:07:39;12.30;99.90
61841;DHT22;47773;53.174;6.614;2023-11-19T15:10:08;12.20;99.90
61841;DHT22;47773;53.174;6.614;2023-11-19T15:12:38;12.20;99.90
61841;DHT22;47773;53.174;6.614;2023-11-19T15:15:09;12.20;99.90
61841;DHT22;47773;53.174;6.614;2023-11-19T15:17:35;12.20;99.90
61841;DHT22;47773;53.174;6.614;2023-11-19T15:20:04;12.20;99.90
61841;DHT22;47773;53.174;6.614;2023-11-19T15:22:31;12.20;99.90
61841;DHT22;47773;53.174;6.614;2023-11-19T15:24:57;12.20;99.90
61841;DHT22;47773;53.174;6.614;2023-11-19T15:27:23;12.20;99.90
61841;DHT22;47773;53.174;6.614;2023-11-19T15:29:49;12.20;99.90
61841;DHT22;47773;53.174;6.614;2023-11-19T15:32:14;12.20;99.90
61841;DHT22;47773;53.174;6.614;2023-11-19T15:34:40;12.30;99.90
61841;DHT22;47773;53.174;6.614;2023-11-19T15:37:07;12.30;99.90
61841;DHT22;47773;53.174;6.614;2023-11-19T15:39:33;12.30;99.90
61841;DHT22;47773;53.174;6.614;2023-11-19T15:42:01;12.30;99.90
61841;DHT22;47773;53.174;6.614;2023-11-19T15:44:27;12.30;99.90
61841;DHT22;47773;53.174;6.614;2023-11-19T15:46:54;12.30;99.90
61841;DHT22;47773;53.174;6.614;2023-11-19T15:49:20;12.30;99.90
61841;DHT22;47773;53.174;6.614;2023-11-19T15:51:46;12.30;99.90
61841;DHT22;47773;53.174;6.614;2023-11-19T15:54:11;12.30;99.90
61841;DHT22;47773;53.174;6.614;2023-11-19T15:56:37;12.30;99.90
61841;DHT22;47773;53.174;6.614;2023-11-19T15:59:03;12.30;99.90